Time;durP1;ratioP1;P1;durP2;ratioP2;P2;SDS_P1;SDS_P2;PMS_P1;PMS_P2;Temp;Humidity;BMP_temperature;BMP_pressure;BME280_temperature;BME280_humidity;BME280_pressure;Samples;Min_cycle;Max_cycle;Signal;HPM_P1;HPM_P2
2022/07/15 01:49:31;;;;;;;;;;;;;;;14.49;49.39258;102349.5;;;;-82
2022/07/15 02:05:02;;;;;;;;;;;;;;;14.65;48.96973;102352.7;;;;-81
2022/07/15 02:11:47;;;;;;;;;;;;;;;14.7;48.72754;102344;;;;-87
2022/07/15 02:14:26;;;;;;;2.3;0.6;;;;;;;;;;;;;-91
2022/07/15 02:19:49;;;;;;;;;;;;;;;14.31;49.49609;102342.8;;;;-90
2022/07/15 02:24:56;;;;;;;;;;;;;;;14.25;49.5;102339.8;;;;-89
2022/07/15 02:29:56;;;;;;;;;;;;;;;14.27;49.45703;102351.6;;;;-82
2022/07/15 03:30:44;;;;;;;;;;;;;;;14.07;49.60352;102376.6;;;;-81
2022/07/15 03:46:45;;;;;;;;;;;;;;;13.6;50.34863;102395.9;;;;-82
2022/07/15 04:01:13;;;;;;;;;;;;;;;;;;;;;
2022/07/15 04:11:21;;;;;;;;;;;;;;;13.67;50.09863;102401.4;;;;-84
2022/07/15 04:14:23;;;;;;;;;;;;;;;;;;;;;
2022/07/15 04:19:19;;;;;;;;;;;;;;;13.43;50.64355;102410.9;;;;-80
2022/07/15 04:24:15;;;;;;;;;;;;;;;13.38;50.55957;102413;;;;-82
2022/07/15 04:26:13;;;;;;;;;;;;;;;13.76;50.25391;102411.8;;;;-81
2022/07/15 04:29:19;;;;;;;;;;;;;;;13.41;50.49512;102406.9;;;;-82
2022/07/15 04:42:42;;;;;;;;;;;;;;;;;;;;;
2022/07/15 04:45:54;;;;;;;;;;;;;;;13.72;50.11523;102417.8;;;;-82
2022/07/15 04:54:28;;;;;;;;;;;;;;;13.53;50.31738;102430.5;;;;-81
2022/07/15 05:07:48;;;;;;;;;;;;;;;14.11;49.55176;102440.2;;;;-81
2022/07/15 05:11:33;;;;;;;;;;;;;;;13.67;50.16504;102431.9;;;;-81
2022/07/15 05:13:30;;;;;;;;;;;;;;;14.01;49.7998;102435;;;;-81
2022/07/15 05:14:38;;;;;;;3.5;0.9;;;;;;;;;;;;;-82
2022/07/15 05:22:28;;;;;;;;;;;;;;;13.75;49.87109;102428.8;;;;-81
2022/07/15 05:27:36;;;;;;;;;;;;;;;13.85;50.25293;102427.2;;;;-83
2022/07/15 05:32:52;;;;;;;;;;;;;;;14.15;49.97266;102420.4;;;;-82
2022/07/15 05:39:15;;;;;;;;;;;;;;;15.74;47.62207;102420.9;;;;-80
2022/07/15 05:44:46;;;;;;;1.7;0.5;;;;;;;;;;;;;-83
2022/07/15 05:52:11;;;;;;;;;;;;;;;17.54;45.11426;102412.9;;;;-82
2022/07/15 05:56:06;;;;;;;;;;;;;;;18.12;44.18359;102412.9;;;;-80
2022/07/15 06:05:46;;;;;;;;;;;;;;;19.62;42.06055;102411.4;;;;-81
2022/07/15 06:06:50;;;;;;;;;;;;;;;19.97;41.66992;102405.3;;;;-80
2022/07/15 06:11:14;;;;;;;;;;;;;;;20.3;41.13965;102410.5;;;;-80
2022/07/15 06:16:13;;;;;;;;;;;;;;;20.84;40.34277;102409.2;;;;-80
2022/07/15 06:21:17;;;;;;;;;;;;;;;21.4;39.62402;102413.8;;;;-81
2022/07/15 06:26:33;;;;;;;;;;;;;;;21.91;39.10547;102415.5;;;;-80
2022/07/15 06:31:30;;;;;;;;;;;;;;;22.37;38.65137;102416.2;;;;-83
2022/07/15 06:55:01;;;;;;;;;;;;;;;24.7;36.5625;102423.3;;;;-79
2022/07/15 07:02:12;;;;;;;;;;;;;;;25.32;36.09082;102423.5;;;;-80
2022/07/15 07:20:56;;;;;;;;;;;;;;;26.18;35.92773;102418.2;;;;-80
2022/07/15 08:36:28;;;;;;;;;;;;;;;;;;;;;
2022/07/15 09:24:58;;;;;;;;;;;;;;;;;;;;;
2022/07/15 09:44:10;;;;;;;;;;;;;;;28.49;31.13477;102393;;;;-82
2022/07/15 09:45:29;;;;;;;;;;;;;;;28.73;30.72949;102389.3;;;;-81
2022/07/15 10:38:03;;;;;;;;;;;;;;;28.69;31.16016;102353;;;;-79
2022/07/15 10:46:14;;;;;;;;;;;;;;;29.65;30.58203;102360.3;;;;-79
2022/07/15 10:52:43;;;;;;;;;;;;;;;30.13;30.06152;102363.3;;;;-82
2022/07/15 10:57:24;;;;;;;;;;;;;;;29.9;29.98828;102372.3;;;;-82
2022/07/15 11:03:34;;;;;;;;;;;;;;;29.93;29.52051;102364.9;;;;-85
2022/07/15 11:50:41;;;;;;;;;;;;;;;29.8;30.87207;102344.6;;;;-84
2022/07/15 11:53:48;;;;;;;;;;;;;;;;;;;;;
2022/07/15 12:01:59;;;;;;;;;;;;;;;29.79;31.37695;102343.1;;;;-83
2022/07/15 12:09:08;;;;;;;;;;;;;;;30.56;30.81836;102335.1;;;;-83
2022/07/15 12:17:49;;;;;;;;;;;;;;;30.58;31.04297;102337.1;;;;-81
2022/07/15 12:53:23;;;;;;;;;;;;;;;32.03;30.36523;102329.4;;;;-77
2022/07/15 12:58:15;;;;;;;;;;;;;;;31.91;30.72168;102335.1;;;;-78
2022/07/15 13:03:16;;;;;;;;;;;;;;;31.96;30.34863;102337.4;;;;-80
2022/07/15 13:08:15;;;;;;;;;;;;;;;31.92;30.22754;102333.9;;;;-78
2022/07/15 13:13:16;;;;;;;;;;;;;;;31.95;30.40625;102334.6;;;;-78
2022/07/15 13:15:16;;;;;;;2.9;1.1;;;;;;;;;;;;;-80
2022/07/15 13:18:13;;;;;;;;;;;;;;;31.89;30.19043;102328.6;;;;-80
2022/07/15 13:23:13;;;;;;;;;;;;;;;31.89;30.27246;102330.6;;;;-79
2022/07/15 13:28:13;;;;;;;;;;;;;;;31.87;30.10645;102331.5;;;;-78
2022/07/15 13:33:13;;;;;;;;;;;;;;;31.88;30.16602;102333.5;;;;-72
2022/07/15 13:38:14;;;;;;;;;;;;;;;31.91;30.55664;102333.5;;;;-74
2022/07/15 13:43:13;;;;;;;;;;;;;;;31.87;30.37695;102326.4;;;;-73
2022/07/15 13:45:20;;;;;;;2.6;1;;;;;;;;;;;;;-73
2022/07/15 13:48:13;;;;;;;;;;;;;;;31.85;30.54102;102329.1;;;;-74
2022/07/15 13:53:13;;;;;;;;;;;;;;;31.91;31.00391;102320.4;;;;-79
2022/07/15 13:58:13;;;;;;;;;;;;;;;32.09;30.66309;102318.9;;;;-78
2022/07/15 14:03:14;;;;;;;;;;;;;;;32.16;30.64453;102311.1;;;;-79
2022/07/15 14:08:13;;;;;;;;;;;;;;;32.04;30.23535;102309.7;;;;-79
2022/07/15 14:13:13;;;;;;;;;;;;;;;31.89;30.29688;102302;;;;-77
2022/07/15 14:15:26;;;;;;;2.9;1;;;;;;;;;;;;;-78
2022/07/15 14:18:13;;;;;;;;;;;;;;;31.89;30.22559;102297.4;;;;-77
2022/07/15 14:23:13;;;;;;;;;;;;;;;31.92;30.2627;102299;;;;-78
2022/07/15 14:28:13;;;;;;;;;;;;;;;31.88;30.05957;102298.9;;;;-79
2022/07/15 14:33:13;;;;;;;;;;;;;;;31.79;29.95996;102285.1;;;;-78
2022/07/15 14:38:13;;;;;;;;;;;;;;;31.76;30.1582;102285;;;;-78
2022/07/15 14:43:13;;;;;;;;;;;;;;;31.76;30.19336;102283.2;;;;-80
2022/07/15 14:45:31;;;;;;;2.3;0.8;;;;;;;;;;;;;-80
2022/07/15 14:48:14;;;;;;;;;;;;;;;31.77;29.87598;102280.6;;;;-81
2022/07/15 14:53:13;;;;;;;;;;;;;;;31.67;29.90527;102275;;;;-78
2022/07/15 14:58:13;;;;;;;;;;;;;;;31.54;30.02539;102276.8;;;;-78
2022/07/15 15:03:13;;;;;;;;;;;;;;;31.41;30.37012;102278.8;;;;-77
2022/07/15 15:08:13;;;;;;;;;;;;;;;31.32;30.54102;102273.6;;;;-79
2022/07/15 15:13:13;;;;;;;;;;;;;;;31.25;30.57129;102273.2;;;;-73
2022/07/15 15:15:36;;;;;;;3.6;1;;;;;;;;;;;;;-74
2022/07/15 15:18:13;;;;;;;;;;;;;;;31.21;30.80469;102274;;;;-73
2022/07/15 15:23:13;;;;;;;;;;;;;;;31.21;30.92188;102275.8;;;;-77
2022/07/15 15:28:13;;;;;;;;;;;;;;;31.1;30.98438;102281.7;;;;-72
2022/07/15 15:33:13;;;;;;;;;;;;;;;31;30.95508;102280.3;;;;-74
2022/07/15 15:38:13;;;;;;;;;;;;;;;30.82;31.07129;102275;;;;-72
2022/07/15 15:43:14;;;;;;;;;;;;;;;30.6;31.33887;102273.1;;;;-73
2022/07/15 15:45:41;;;;;;;5.6;1.4;;;;;;;;;;;;;-73
2022/07/15 15:48:13;;;;;;;;;;;;;;;30.4;31.6416;102265.4;;;;-74
2022/07/15 15:53:13;;;;;;;;;;;;;;;30.3;31.76367;102262;;;;-77
2022/07/15 15:58:13;;;;;;;;;;;;;;;30.24;31.74805;102254.4;;;;-78
2022/07/15 16:03:13;;;;;;;;;;;;;;;30.2;32.03809;102249.5;;;;-78
2022/07/15 16:08:13;;;;;;;;;;;;;;;30.2;32.0498;102254.2;;;;-78
2022/07/15 16:13:13;;;;;;;;;;;;;;;30.16;31.90625;102252.3;;;;-79
2022/07/15 16:15:45;;;;;;;2.3;0.9;;;;;;;;;;;;;-78
2022/07/15 16:18:13;;;;;;;;;;;;;;;30.05;31.71094;102251.7;;;;-80
2022/07/15 16:23:13;;;;;;;;;;;;;;;29.97;31.8457;102255.2;;;;-78
2022/07/15 16:28:14;;;;;;;;;;;;;;;29.9;31.68945;102248.3;;;;-79
2022/07/15 16:33:13;;;;;;;;;;;;;;;29.78;31.7041;102244.6;;;;-80
2022/07/15 16:38:14;;;;;;;;;;;;;;;29.62;31.77441;102240.1;;;;-78
2022/07/15 16:43:13;;;;;;;;;;;;;;;29.38;31.23145;102246.7;;;;-78
2022/07/15 16:45:49;;;;;;;2.3;1.1;;;;;;;;;;;;;-74
2022/07/15 16:48:13;;;;;;;;;;;;;;;29.16;31.7666;102240;;;;-75
2022/07/15 16:53:13;;;;;;;;;;;;;;;29.06;31.8291;102238.4;;;;-75
2022/07/15 16:58:13;;;;;;;;;;;;;;;28.91;31.93555;102237.3;;;;-74
2022/07/15 17:03:13;;;;;;;;;;;;;;;28.72;31.67676;102236.9;;;;-81
2022/07/15 17:08:13;;;;;;;;;;;;;;;28.55;31.86328;102234.1;;;;-77
2022/07/15 17:13:16;;;;;;;;;;;;;;;28.41;32.12207;102231.3;;;;-78
2022/07/15 17:15:54;;;;;;;4.2;2.3;;;;;;;;;;;;;-78
2022/07/15 17:18:13;;;;;;;;;;;;;;;28.21;32.16699;102232.3;;;;-78
2022/07/15 17:23:13;;;;;;;;;;;;;;;27.98;32.46582;102231.8;;;;-78
2022/07/15 17:28:13;;;;;;;;;;;;;;;27.73;32.83203;102228.3;;;;-77
2022/07/15 17:33:14;;;;;;;;;;;;;;;27.46;32.81348;102225.9;;;;-80
2022/07/15 17:38:13;;;;;;;;;;;;;;;27.22;33.14551;102222;;;;-79
2022/07/15 17:43:13;;;;;;;;;;;;;;;26.96;33.08008;102223.5;;;;-78
2022/07/15 17:46:00;;;;;;;2.9;1.1;;;;;;;;;;;;;-78
2022/07/15 17:48:13;;;;;;;;;;;;;;;26.72;33.3291;102229.1;;;;-79
2022/07/15 17:53:13;;;;;;;;;;;;;;;26.44;33.37891;102227.9;;;;-78
2022/07/15 17:58:13;;;;;;;;;;;;;;;26.18;33.52246;102232.2;;;;-77
2022/07/15 18:03:13;;;;;;;;;;;;;;;25.93;33.68945;102229.9;;;;-78
2022/07/15 18:08:13;;;;;;;;;;;;;;;25.69;33.75293;102231.8;;;;-77
2022/07/15 18:13:13;;;;;;;;;;;;;;;25.47;34.01367;102225;;;;-79
2022/07/15 18:16:04;;;;;;;3.2;1;;;;;;;;;;;;;-79
2022/07/15 18:18:13;;;;;;;;;;;;;;;25.24;34.04395;102219.2;;;;-77
2022/07/15 18:23:13;;;;;;;;;;;;;;;25.04;34.14355;102218.3;;;;-78
2022/07/15 18:28:13;;;;;;;;;;;;;;;24.83;34.38379;102213.7;;;;-77
2022/07/15 18:33:13;;;;;;;;;;;;;;;24.64;34.55371;102210.6;;;;-78
2022/07/15 18:38:26;;;;;;;;;;;;;;;24.43;34.73438;102205.3;;;;-77
2022/07/15 18:43:13;;;;;;;;;;;;;;;24.23;34.68359;102204.8;;;;-76
2022/07/15 18:46:05;;;;;;;1.5;0.8;;;;;;;;;;;;;-79
2022/07/15 18:48:13;;;;;;;;;;;;;;;24.03;34.85449;102211.1;;;;-78
2022/07/15 18:53:13;;;;;;;;;;;;;;;23.84;35.37109;102211;;;;-77
2022/07/15 18:58:13;;;;;;;;;;;;;;;23.64;35.43555;102202.8;;;;-71
2022/07/15 19:03:13;;;;;;;;;;;;;;;23.44;35.96289;102191.3;;;;-74
2022/07/15 19:08:13;;;;;;;;;;;;;;;23.25;36.31641;102190.8;;;;-72
2022/07/15 19:13:13;;;;;;;;;;;;;;;23.05;36.90039;102187.9;;;;-79
2022/07/15 19:16:09;;;;;;;2;0.8;;;;;;;;;;;;;-78
2022/07/15 19:18:13;;;;;;;;;;;;;;;22.85;37.25195;102185.1;;;;-78
2022/07/15 19:23:13;;;;;;;;;;;;;;;22.66;37.79004;102187.8;;;;-78
2022/07/15 19:28:13;;;;;;;;;;;;;;;22.47;37.98047;102191.1;;;;-77
2022/07/15 19:33:13;;;;;;;;;;;;;;;22.28;38.30957;102185.6;;;;-79
2022/07/15 19:38:13;;;;;;;;;;;;;;;22.11;38.52539;102177.9;;;;-77
2022/07/15 19:43:13;;;;;;;;;;;;;;;21.95;39.07422;102177.6;;;;-79
2022/07/15 19:46:11;;;;;;;2.4;0.8;;;;;;;;;;;;;-78
2022/07/15 19:48:13;;;;;;;;;;;;;;;21.8;39.38379;102183.5;;;;-78
2022/07/15 19:53:14;;;;;;;;;;;;;;;21.65;39.8877;102179.4;;;;-78
2022/07/15 19:58:13;;;;;;;;;;;;;;;21.52;40.27734;102179;;;;-78
2022/07/15 20:03:16;;;;;;;;;;;;;;;21.39;40.69043;102182.1;;;;-79
2022/07/15 20:08:13;;;;;;;;;;;;;;;21.27;41;102186;;;;-78
2022/07/15 20:13:13;;;;;;;;;;;;;;;21.16;41.47266;102181.1;;;;-77
2022/07/15 20:16:14;;;;;;;2.1;0.9;;;;;;;;;;;;;-78
2022/07/15 20:18:13;;;;;;;;;;;;;;;21.05;41.75977;102179;;;;-79
2022/07/15 20:23:13;;;;;;;;;;;;;;;20.94;41.875;102177.6;;;;-78
2022/07/15 20:28:13;;;;;;;;;;;;;;;20.82;42.39063;102173.6;;;;-78
2022/07/15 20:33:13;;;;;;;;;;;;;;;20.69;42.52734;102168.3;;;;-78
2022/07/15 20:38:13;;;;;;;;;;;;;;;20.6;42.93164;102165.7;;;;-79
2022/07/15 20:43:13;;;;;;;;;;;;;;;20.49;42.95508;102165.2;;;;-80
2022/07/15 20:46:18;;;;;;;4;1.2;;;;;;;;;;;;;-76
2022/07/15 20:48:13;;;;;;;;;;;;;;;20.4;43.30078;102166.1;;;;-77
2022/07/15 20:53:13;;;;;;;;;;;;;;;20.29;43.32422;102160.8;;;;-79
2022/07/15 20:58:14;;;;;;;;;;;;;;;20.2;43.5332;102160.9;;;;-78
2022/07/15 21:03:13;;;;;;;;;;;;;;;20.09;43.79688;102159.1;;;;-78
2022/07/15 21:08:13;;;;;;;;;;;;;;;19.99;43.99219;102152.2;;;;-79
2022/07/15 21:13:14;;;;;;;;;;;;;;;19.87;44.33496;102148.1;;;;-78
